Tiempo atmosférico en la estación meteorológica de Campos, Can Sion, Illes Balears (40 m.)



Fecha
DESCASC
Temp. máxima en grados centígrados (hora)
DESCASC
Temp. mínima en grados centígrados (hora)
DESCASC
Temp. media en grados centígrados
DESCASC
Racha de viento máxima en m/sg (hora)
DESCASC
Velocidad máxima media en intervalos de 10 minutos(hora)
DESCASC
Precipitaciones diarias en mm
DESCASC
Precipitaciones de 00:00 a 06:00 en mm
DESCASC
Precipitaciones de 06:00 a 12:00 en mm
DESCASC
Precipitaciones de 12:00 a 18:00 en mm
DESCASC
Precipitaciones de 18:00 a 24:00 en mm
DESCASC
06-07-2020 33.8 (12:00) 16.4 (05:00) 25.1 8.61 (17:30) 5 (17:50) 0 0 0 0 0
05-07-2020 31.2 (12:00) 15.1 (05:40) 23.2 8.33 (14:00) 5 (15:50) 0 0 0 0 0
04-07-2020 28.7 (15:30) 14.8 (06:20) 21.8 9.17 (14:40) 5.28 (14:50) 0 0 0 0 0
03-07-2020 30.5 (15:50) 18.6 (23:59) 24.6 10.83 (11:20) 5 (09:40) 0 0 0 0 0
02-07-2020 33 (14:10) 18.2 (00:00) 25.6 8.06 (16:10) 4.44 (16:10) 0 0 0 0 0
01-07-2020 33.7 (17:10) 20.9 (00:00) 27.3 9.72 (15:20) 6.11 (15:40) 0 0 0 0 0
30-06-2020 32.1 (16:00) 17.8 (00:00) 24.9 8.06 (13:10) 5 (13:10) 0 0 0 0 0
29-06-2020 31.9 (12:40) 17.3 (00:00) 24.6 8.33 (15:20) 4.72 (13:00) 0 0 0 0 0
28-06-2020 30.8 (11:40) 17.6 (00:00) 24.2 8.06 (14:50) 3.89 (16:00) 0 0 0 0 0
27-06-2020 30 (16:20) 21.5 (00:00) 25.8 7.22 (17:00) 3.89 (14:20) 0 0 0 0 0
26-06-2020 31 (12:30) 16.6 (00:00) 23.8 8.89 (13:40) 5 (13:20) 0 0 0 0 0
25-06-2020 32.5 (14:20) 16.2 (00:00) 24.4 10.83 (16:30) 6.11 (15:20) 0 0 0 0 0
24-06-2020 32.7 (15:20) 15.2 (00:00) 24 8.33 (16:30) 4.44 (17:10) 0 0 0 0 0
23-06-2020 30.5 (13:10) 14.2 (00:00) 22.3 8.06 (13:30) 3.89 (14:40) 0 0 0 0 0
22-06-2020 31.3 (13:30) 15.2 (00:00) 23.2 10 (14:20) 5.83 (14:20) 0 0 0 0 0
21-06-2020 30.3 (13:40) 14.5 (00:00) 22.4 7.5 (17:10) 4.17 (15:50) 0 0 0 0 0
20-06-2020 27.7 (14:30) 15 (00:00) 21.4 8.89 (16:40) 5 (16:40) 0 0 0 0 0
19-06-2020 26.9 (13:30) 16.9 (00:00) 21.9 9.17 (16:30) 5.28 (16:00) 0.8 0 0.8 0 0
18-06-2020 27.9 (14:10) 15.7 (00:00) 21.8 8.61 (17:20) 5 (19:10) 0 0 0 0 0
17-06-2020 27 (13:30) 14.7 (00:00) 20.8 8.33 (12:40) 5 (14:30) 0 0 0 0 0
16-06-2020 26.8 (17:00) 16.1 (00:00) 21.4 8.89 (14:20) 4.44 (14:20) 0 0 0 0 0
15-06-2020 26.4 (16:20) 13.5 (00:00) 19.9 8.33 (12:10) 4.72 (18:00) 0 0 0 0 0
14-06-2020 26.6 (16:20) 13.6 (00:00) 20.1 8.61 (13:20) 5.28 (13:20) 0 0 0 0 0
13-06-2020 27.3 (14:50) 15.2 (00:00) 21.2 10.83 (12:50) 6.11 (12:40) 0 0 0 0 0
12-06-2020 27.1 (14:10) 17.5 (00:00) 22.3 11.67 (10:20) 6.94 (10:20) 0 0 0 0 0
11-06-2020 25 (15:00) 17.1 (00:00) 21.1 10.28 (14:30) 5.83 (13:30) 0 0 0 0 0
10-06-2020 24.8 (14:30) 10 (00:00) 17.4 9.44 (16:10) 5.28 (17:40) 0.4 0 0 0.4 0
09-06-2020 23.6 (13:40) 10.7 (00:00) 17.2 11.11 (15:20) 6.11 (15:40) 0 0 0 0 0

Gráficas

Temp. máximas Temp. mínimas Temp. medias Precipitaciones Rachas de viento máximas Velocidades máximas media en intervalos de 10 minutos

Datos horarios

Fecha y hora oficial Temperatura (ºC) Velocidad del viento (km/h) Dirección del viento Racha (km/h) Dirección de racha Precipitación (mm) Presión (hPa) Tendencia (hPa) Humedad (%)
2020-07-08 23:00:00 22.7 0 Calma 9 Oeste 0 -- -- 73
2020-07-08 22:00:00 24 4 Oeste 7 Oeste 0 -- -- 66
2020-07-08 21:00:00 26.3 4 Sudeste 14 Este 0 -- -- 56
2020-07-08 20:00:00 28.3 7 Sudeste 18 Sudeste 0 -- -- 50
2020-07-08 19:00:00 28.9 12 Sudeste 27 Sudeste 0 -- -- 49
2020-07-08 18:00:00 30.3 14 Este 26 Sur 0 -- -- 41
2020-07-08 17:00:00 31.3 10 Sudeste 22 Sudeste 0 -- -- 43
2020-07-08 16:00:00 30.9 10 Sur 25 Este 0 -- -- 45
2020-07-08 15:00:00 31.2 14 Sudeste 28 Sudeste 0 -- -- 46
2020-07-08 14:00:00 31.6 14 Sudeste 26 Sudeste 0 -- -- 43
2020-07-08 13:00:00 31.7 13 Sudeste 26 Sudeste 0 -- -- 36
2020-07-08 12:00:00 31.9 5 Noroeste 13 Nordeste 0 -- -- 30
2020-07-08 11:00:00 30.1 6 Nordeste 13 Sudeste 0 -- -- 32
2020-07-08 10:00:00 27.9 5 Este 12 Nordeste 0 -- -- 47
2020-07-08 09:00:00 24.8 2 Noroeste 5 Nordeste 0 -- -- 78
2020-07-08 08:00:00 21 4 Este 6 Este 0 -- -- 95
2020-07-08 07:00:00 16.9 3 Este 5 Nordeste 0 -- -- 96
2020-07-08 06:00:00 16.9 3 Este 4 Este 0 -- -- 93
2020-07-08 05:00:00 17.9 0 Calma 6 Este 0 -- -- 93
2020-07-08 04:00:00 18.2 5 Este 6 Este 0 -- -- 91
2020-07-08 03:00:00 19 3 Este 5 Este 0 -- -- 88
2020-07-08 02:00:00 20.3 3 Este 4 Este 0 -- -- 85
2020-07-08 01:00:00 22.7 3 Sur 8 Sur 0 -- -- 83
2020-07-08 00:00:00 23.6 2 Sur 5 Sudeste 0 -- -- 83
2020-07-07 23:00:00 22.5 4 Sur 5 Sudeste 0 -- -- 81
2020-07-07 22:00:00 23.9 4 Sur 13 Sur 0 -- -- 79
2020-07-07 21:00:00 25.1 9 Sudoeste 19 Sur 0 -- -- 75
2020-07-07 20:00:00 26.9 12 Sudoeste 26 Sudoeste 0 -- -- 70
2020-07-07 19:00:00 27.8 14 Sudoeste 30 Sudoeste 0 -- -- 64
2020-07-07 18:00:00 28.6 14 Sudoeste 31 Sudoeste 0 -- -- 63
2020-07-07 17:00:00 29.3 15 Sudoeste 35 Sudoeste 0 -- -- 58
2020-07-07 16:00:00 29.6 17 Sudoeste 31 Sudoeste 0 -- -- 54
2020-07-07 15:00:00 29.8 17 Sudoeste 30 Sudoeste 0 -- -- 54
2020-07-07 14:00:00 30 16 Sudoeste 29 Sur 0 -- -- 53
2020-07-07 13:00:00 30.3 13 Sudoeste 28 Sudoeste 0 -- -- 48
2020-07-07 12:00:00 29.2 10 Sudoeste 23 Sudoeste 0 -- -- 54
2020-07-07 11:00:00 27.9 10 Sudoeste 22 Sudoeste 0 -- -- 62
2020-07-07 10:00:00 27 9 Sur 18 Este 0 -- -- 67
2020-07-07 09:00:00 25.6 6 Sudeste 12 Sudeste 0 -- -- 74
2020-07-07 08:00:00 21.6 4 Este 6 Este 0 -- -- 90
2020-07-07 07:00:00 17.1 3 Este 5 Nordeste 0 -- -- 94
2020-07-07 06:00:00 16.9 3 Este 5 Este 0 -- -- 92
2020-07-07 05:00:00 17.3 2 Este 5 Este 0 -- -- 92
2020-07-07 04:00:00 17.5 3 Este 5 Sudeste 0 -- -- 91
2020-07-07 03:00:00 17.8 3 Este 4 Este 0 -- -- 88
2020-07-07 02:00:00 18.4 0 Calma 3 Este 0 -- -- 86
2020-07-07 01:00:00 19.3 0 Calma 3 Este 0 -- -- 84
2020-07-07 00:00:00 20.7 0 Calma 6 Noroeste 0 -- -- 83
2020-07-06 23:00:00 21.9 3 Sudeste 5 Este 0 -- -- 78
2020-07-06 22:00:00 24.4 3 Sur 9 Sudoeste 0 -- -- 72
2020-07-06 21:00:00 27.1 6 Sudoeste 19 Sudoeste 0 -- -- 63
2020-07-06 20:00:00 29.1 13 Sudoeste 26 Sudoeste 0 -- -- 49
2020-07-06 19:00:00 30.3 14 Sudoeste 28 Sudoeste 0 -- -- 39
2020-07-06 18:00:00 30.9 14 Sudoeste 31 Sudoeste 0 -- -- 35
2020-07-06 17:00:00 30.9 15 Sudoeste 29 Sudoeste 0 -- -- 36
2020-07-06 16:00:00 31 16 Sudoeste 28 Sudoeste 0 -- -- 39
2020-07-06 15:00:00 31.1 14 Sudoeste 28 Sudoeste 0 -- -- 46
2020-07-06 14:00:00 31.3 15 Sudoeste 28 Sudoeste 0 -- -- 48
2020-07-06 13:00:00 31.9 13 Sudoeste 28 Oeste 0 -- -- 50
2020-07-06 12:00:00 33.8 5 Norte 18 Noroeste 0 -- -- 40
2020-07-06 11:00:00 32.1 6 Norte 13 Norte 0 -- -- 36
2020-07-06 10:00:00 28.8 5 Norte 9 Nordeste 0 -- -- 44
2020-07-06 09:00:00 25.7 5 Oeste 9 Oeste 0 -- -- 68
2020-07-06 08:00:00 22.2 0 Calma 5 Este 0 -- -- 87
2020-07-06 07:00:00 17.5 4 Este 6 Este 0 -- -- 95
2020-07-06 06:00:00 16.7 4 Este 6 Este 0 -- -- 94
2020-07-06 05:00:00 16.4 4 Este 5 Este 0 -- -- 92
2020-07-06 04:00:00 16.7 3 Este 5 Este 0 -- -- 91
2020-07-06 03:00:00 17.1 3 Este 4 Sudeste 0 -- -- 90
2020-07-06 02:00:00 17.6 2 Este 4 Este 0 -- -- 87
2020-07-06 01:00:00 18.5 3 Este 3 Este 0 -- -- 86
2020-07-06 00:00:00 19.6 0 Calma 4 Sudoeste 0 -- -- 82
2020-07-05 23:00:00 21.7 2 Sudoeste 9 Sudoeste 0 -- -- 77
2020-07-05 22:00:00 23.5 7 Sudoeste 19 Sudoeste 0 -- -- 74
2020-07-05 21:00:00 24.8 10 Sudoeste 24 Sudoeste 0 -- -- 69
2020-07-05 20:00:00 26.6 14 Sudoeste 24 Sudoeste 0 -- -- 62
2020-07-05 19:00:00 27.7 13 Sudoeste 26 Sudoeste 0 -- -- 58
2020-07-05 18:00:00 28.7 14 Sudoeste 26 Oeste 0 -- -- 54
2020-07-05 17:00:00 29.3 14 Sudoeste 28 Sudoeste 0 -- -- 46
2020-07-05 16:00:00 29.7 15 Sudoeste 30 Sudoeste 0 -- -- 51
2020-07-05 15:00:00 30.2 15 Sudoeste 28 Oeste 0 -- -- 46
2020-07-05 14:00:00 30.1 15 Sudoeste 30 Sudoeste 0 -- -- 48
2020-07-05 13:00:00 30.6 12 Sudoeste 24 Sudoeste 0 -- -- 44
2020-07-05 12:00:00 31.2 6 Nordeste 14 Nordeste 0 -- -- 39
2020-07-05 11:00:00 29.3 5 Norte 12 Noroeste 0 -- -- 43
2020-07-05 10:00:00 26.7 4 Oeste 9 Oeste 0 -- -- 55
2020-07-05 09:00:00 24.5 2 Oeste 5 Noroeste 0 -- -- 75
2020-07-05 08:00:00 19.8 0 Calma 6 Este 0 -- -- 93
2020-07-05 07:00:00 15.3 4 Este 5 Este 0 -- -- 95
2020-07-05 06:00:00 15.1 4 Este 5 Este 0 -- -- 94
2020-07-05 05:00:00 15.6 3 Este 5 Nordeste 0 -- -- 93
2020-07-05 04:00:00 16.2 2 Nordeste 4 Este 0 -- -- 91
2020-07-05 03:00:00 17.2 3 Este 4 Este 0 -- -- 92
2020-07-05 02:00:00 17.6 3 Este 5 Este 0 -- -- 92
2020-07-05 01:00:00 17.9 3 Este 4 Nordeste 0 -- -- 87
2020-07-05 00:00:00 19 3 Este 5 Este 0 -- -- 84
2020-07-04 23:00:00 20.5 2 Este 6 Sudoeste 0 -- -- 81
2020-07-04 22:00:00 22.7 4 Sudoeste 15 Sudoeste 0 -- -- 79
2020-07-04 21:00:00 23.9 8 Sudoeste 23 Oeste 0 -- -- 75
2020-07-04 20:00:00 25.5 13 Sudoeste 25 Sudoeste 0 -- -- 68
2020-07-04 19:00:00 25.7 16 Sudoeste 28 Sudoeste 0 -- -- 67
2020-07-04 18:00:00 26.1 14 Sudoeste 30 Sudoeste 0 -- -- 64
2020-07-04 17:00:00 28 17 Sudoeste 33 Sudoeste 0 -- -- 59
2020-07-04 16:00:00 28.5 17 Sudoeste 31 Sudoeste 0 -- -- 57
2020-07-04 15:00:00 28.4 14 Sudoeste 33 Sudoeste 0 -- -- 57
2020-07-04 14:00:00 28.1 14 Sudoeste 31 Sudoeste 0 -- -- 57
2020-07-04 13:00:00 28.1 13 Sudoeste 27 Sudoeste 0 -- -- 57
2020-07-04 12:00:00 27.4 9 Sudoeste 19 Oeste 0 -- -- 57
2020-07-04 11:00:00 26.8 10 Sudoeste 19 Sudoeste 0 -- -- 58
2020-07-04 10:00:00 25.4 9 Sudoeste 20 Sudoeste 0 -- -- 64
2020-07-04 09:00:00 24.4 4 Sudoeste 7 Sur 0 -- -- 67
2020-07-04 08:00:00 19.9 0 Calma 5 Este 0 -- -- 81
2020-07-04 07:00:00 15.3 4 Este 6 Este 0 -- -- 93
2020-07-04 06:00:00 14.9 4 Este 5 Este 0 -- -- 90
2020-07-04 05:00:00 15.2 3 Este 5 Este 0 -- -- 89
2020-07-04 04:00:00 15.4 3 Este 5 Este 0 -- -- 88
2020-07-04 03:00:00 15.6 3 Este 4 Este 0 -- -- 86
2020-07-04 02:00:00 16.2 2 Sudeste 4 Este 0 -- -- 83
2020-07-04 01:00:00 17.1 3 Este 4 Este 0 -- -- 80
2020-07-04 00:00:00 18.6 3 Este 5 Norte 0 -- -- 75
2020-07-03 23:00:00 20.4 2 Nordeste 7 Este 0 -- -- 71
2020-07-03 22:00:00 22.3 5 Este 14 Este 0 -- -- 65
2020-07-03 21:00:00 23.8 9 Este 21 Este 0 -- -- 57
2020-07-03 20:00:00 25.8 14 Este 24 Este 0 -- -- 50
2020-07-03 19:00:00 27.1 12 Este 28 Este 0 -- -- 46
2020-07-03 18:00:00 27.4 18 Este 30 Este 0 -- -- 46
2020-07-03 17:00:00 27.9 16 Este 29 Nordeste 0 -- -- 47
2020-07-03 16:00:00 30.4 8 Nordeste 26 Norte 0 -- -- 44
2020-07-03 15:00:00 29.9 11 Nordeste 31 Este 0 -- -- 48
2020-07-03 14:00:00 29.2 15 Nordeste 37 Este 0 -- -- 49
2020-07-03 13:00:00 28.4 17 Nordeste 37 Nordeste 0 -- -- 49
2020-07-03 12:00:00 28.3 16 Nordeste 39 Norte 0 -- -- 48
2020-07-03 11:00:00 27.1 16 Nordeste 33 Nordeste 0 -- -- 51
2020-07-03 10:00:00 26.7 17 Nordeste 36 Nordeste 0 -- -- 56
2020-07-03 09:00:00 25.5 15 Nordeste 34 Nordeste 0 -- -- 60
2020-07-03 08:00:00 24 11 Nordeste 21 Nordeste 0 -- -- 69
2020-07-03 07:00:00 22.4 8 Nordeste 21 Nordeste 0 -- -- 79
2020-07-03 06:00:00 22.5 8 Nordeste 16 Nordeste 0 -- -- 83
2020-07-03 05:00:00 22.8 7 Nordeste 17 Nordeste 0 -- -- 84
2020-07-03 04:00:00 23.3 7 Nordeste 18 Nordeste 0 -- -- 81
2020-07-03 03:00:00 24.2 8 Nordeste 16 Norte 0 -- -- 83
2020-07-03 02:00:00 23.8 6 Nordeste 19 Nordeste 0 -- -- 89
2020-07-03 01:00:00 23.1 3 Nordeste 5 Este 0 -- -- 87
2020-07-03 00:00:00 22.8 0 Calma 3 Este 0 -- -- 86
2020-07-02 23:00:00 24 3 Este 14 Este 0 -- -- 84
2020-07-02 22:00:00 24.9 7 Este 14 Este 0 -- -- 80
2020-07-02 21:00:00 26.2 6 Este 18 Sudeste 0 -- -- 75
2020-07-02 20:00:00 28.5 9 Sudeste 17 Sudeste 0 -- -- 68
2020-07-02 19:00:00 29.6 12 Sudeste 22 Sudeste 0 -- -- 64
2020-07-02 18:00:00 31 9 Sudeste 21 Sudeste 0 -- -- 57
2020-07-02 17:00:00 31.3 11 Sudeste 29 Este 0 -- -- 53
2020-07-02 16:00:00 31.5 15 Sudeste 28 Sudeste 0 -- -- 55
2020-07-02 15:00:00 32.5 10 Sudeste 23 Este 0 -- -- 51
2020-07-02 14:00:00 32.8 7 Sudeste 19 Sur 0 -- -- 46
2020-07-02 13:00:00 31.7 7 Sudeste 20 Sudeste 0 -- -- 52
2020-07-02 12:00:00 30.7 10 Sudeste 21 Sur 0 -- -- 59
2020-07-02 11:00:00 30.2 9 Sudeste 17 Sudeste 0 -- -- 58
2020-07-02 10:00:00 28.5 7 Este 15 Este 0 -- -- 66
2020-07-02 09:00:00 26.2 5 Este 11 Nordeste 0 -- -- 81
2020-07-02 08:00:00 22.4 0 Calma 4 Nordeste 0 -- -- 97
2020-07-02 07:00:00 19.7 3 Nordeste 4 Nordeste 0 -- -- 97
2020-07-02 06:00:00 18.3 0 Calma 5 Este 0 -- -- 95
2020-07-02 05:00:00 18.7 0 Calma 5 Este 0 -- -- 95
2020-07-02 04:00:00 19.2 3 Este 4 Norte 0 -- -- 95
2020-07-02 03:00:00 20.3 3 Este 5 Nordeste 0 -- -- 94
2020-07-02 02:00:00 21.2 3 Nordeste 7 Este 0 -- -- 94
2020-07-02 01:00:00 21.6 5 Este 7 Este 0 -- -- 93
2020-07-02 00:00:00 22.2 2 Sudeste 6 Sudoeste 0 -- -- 89
2020-07-01 23:00:00 23.9 4 Oeste 15 Sudoeste 0 -- -- 89
2020-07-01 22:00:00 24.5 7 Sudoeste 18 Sudoeste 0 -- -- 87
2020-07-01 21:00:00 26.1 10 Sudoeste 27 Sudoeste 0 -- -- 75
2020-07-01 20:00:00 28 16 Sudoeste 34 Sudoeste 0 -- -- 65
2020-07-01 19:00:00 29.8 18 Sudoeste 31 Sudoeste 0 -- -- 62
2020-07-01 18:00:00 32.1 19 Oeste 33 Oeste 0 -- -- 46
2020-07-01 17:00:00 33.5 17 Oeste 31 Oeste 0 -- -- 45
2020-07-01 16:00:00 32.8 18 Sudoeste 35 Sudoeste 0 -- -- 53
2020-07-01 15:00:00 32.6 15 Sudoeste 29 Sudoeste 0 -- -- 54
2020-07-01 14:00:00 31 16 Sudoeste 31 Sudoeste 0 -- -- 59
2020-07-01 13:00:00 32.5 13 Sudoeste 26 Sudoeste 0 -- -- 55
2020-07-01 12:00:00 32.5 6 Norte 14 Norte 0 -- -- 52
2020-07-01 11:00:00 30.2 4 Noroeste 18 Sudeste 0 -- -- 59
2020-07-01 10:00:00 28.4 12 Este 27 Este 0 -- -- 64
2020-07-01 09:00:00 26.8 13 Este 24 Este 0 -- -- 69
2020-07-01 08:00:00 23.4 5 Nordeste 15 Nordeste 0 -- -- 87
2020-07-01 07:00:00 21.6 4 Norte 16 Nordeste 0 -- -- 91
2020-07-01 06:00:00 21.8 8 Nordeste 19 Nordeste 0 -- -- 93
2020-07-01 05:00:00 21.5 3 Nordeste 13 Nordeste 0 -- -- 92
2020-07-01 04:00:00 22 4 Nordeste 12 Norte 0 -- -- 91
2020-07-01 03:00:00 22.9 5 Norte 19 Nordeste 0 -- -- 88
2020-07-01 02:00:00 22 4 Norte 9 Nordeste 0 -- -- 88
2020-07-01 01:00:00 21 2 Nordeste 7 Nordeste 0 -- -- 85
2020-07-01 00:00:00 23 0 Calma 14 Nordeste 0 -- -- 79
2020-06-30 23:00:00 24.1 6 Nordeste 27 Este 0 -- -- 78
2020-06-30 22:00:00 24.7 15 Este 29 Este 0 -- -- 79
2020-06-30 21:00:00 26.2 8 Este 20 Este 0 -- -- 66
2020-06-30 20:00:00 28.5 11 Este 22 Este 0 -- -- 51
2020-06-30 19:00:00 30.1 12 Sudeste 23 Sudeste 0 -- -- 47
2020-06-30 18:00:00 31 13 Este 28 Este 0 -- -- 42
2020-06-30 17:00:00 31.5 14 Este 27 Sudeste 0 -- -- 42
2020-06-30 16:00:00 32.1 14 Este 27 Sudeste 0 -- -- 40
2020-06-30 15:00:00 31.5 16 Este 29 Este 0 -- -- 43
2020-06-30 14:00:00 31.1 15 Este 29 Sudeste 0 -- -- 46
2020-06-30 13:00:00 30.8 17 Sudeste 28 Este 0 -- -- 46
2020-06-30 12:00:00 30.3 15 Este 28 Este 0 -- -- 49
2020-06-30 11:00:00 29.7 8 Este 22 Este 0 -- -- 54
2020-06-30 10:00:00 28.1 14 Este 21 Este 0 -- -- 66
2020-06-30 09:00:00 26.4 5 Nordeste 11 Nordeste 0 -- -- 77
2020-06-30 08:00:00 22.6 4 Nordeste 9 Nordeste 0 -- -- 96
2020-06-30 07:00:00 18.8 3 Este 5 Este 0 -- -- 97
2020-06-30 06:00:00 18 0 Calma 5 Nordeste 0 -- -- 94
2020-06-30 05:00:00 17.9 4 Este 4 Este 0 -- -- 94
2020-06-30 04:00:00 17.9 4 Nordeste 7 Este 0 -- -- 93
2020-06-30 03:00:00 18 2 Nordeste 4 Este 0 -- -- 91
2020-06-30 02:00:00 18.4 0 Calma 3 Norte 0 -- -- 88
2020-06-30 01:00:00 19.1 3 Nordeste 6 Nordeste 0 -- -- 87
2020-06-30 00:00:00 20 3 Norte 5 Norte 0 -- -- 85
2020-06-29 23:00:00 21.3 2 Este 5 Nordeste 0 -- -- 79
2020-06-29 22:00:00 23.6 0 Calma 9 Sudeste 0 -- -- 73
2020-06-29 21:00:00 26 6 Sudeste 14 Sudeste 0 -- -- 67
2020-06-29 20:00:00 27.9 8 Sudeste 17 Sudeste 0 -- -- 63
2020-06-29 19:00:00 29.1 10 Sudeste 20 Este 0 -- -- 58
2020-06-29 18:00:00 29.9 10 Sudeste 22 Sudeste 0 -- -- 56
2020-06-29 17:00:00 30.5 9 Sudeste 21 Sudeste 0 -- -- 57
2020-06-29 16:00:00 30.7 11 Sudeste 30 Sudeste 0 -- -- 53
2020-06-29 15:00:00 31.3 14 Este 26 Sudeste 0 -- -- 52
2020-06-29 14:00:00 30.4 14 Sudeste 28 Sudeste 0 -- -- 55
2020-06-29 13:00:00 31.1 17 Sudeste 28 Sudeste 0 -- -- 55
2020-06-29 12:00:00 31.6 11 Sudeste 19 Este 0 -- -- 47
2020-06-29 11:00:00 30.1 8 Este 15 Sudeste 0 -- -- 51
2020-06-29 10:00:00 28.9 6 Sudeste 15 Sudeste 0 -- -- 56
2020-06-29 09:00:00 26.3 3 Este 5 Este 0 -- -- 74
2020-06-29 08:00:00 22.7 2 Nordeste 7 Este 0 -- -- 94
2020-06-29 07:00:00 17.8 3 Este 6 Este 0 -- -- 95
2020-06-29 06:00:00 17.5 2 Este 4 Este 0 -- -- 93
2020-06-29 05:00:00 18.1 3 Este 4 Este 0 -- -- 93
2020-06-29 04:00:00 18.8 3 Este 5 Este 0 -- -- 93
2020-06-29 03:00:00 19.2 3 Este 4 Este 0 -- -- 91
2020-06-29 02:00:00 19.9 -- -- -- -- 0 -- -- 90
2020-06-29 01:00:00 20.9 0 Calma 2 Este 0 -- -- 88
2020-06-29 00:00:00 21.6 0 Calma 4 Sur 0 -- -- 88
2020-06-28 23:00:00 22.6 2 Sudoeste 5 Sudoeste 0 -- -- 85
2020-06-28 22:00:00 24.1 3 Sudoeste 7 Sudoeste 0 -- -- 83
2020-06-28 21:00:00 25.5 5 Sudoeste 15 Sudoeste 0 -- -- 78
2020-06-28 20:00:00 27.5 6 Sur 20 Sudoeste 0 -- -- 71
2020-06-28 19:00:00 27.6 11 Sudoeste 22 Sudoeste 0 -- -- 68
2020-06-28 18:00:00 28.9 13 Sudoeste 25 Sudoeste 0 -- -- 65
2020-06-28 17:00:00 29.9 12 Sudoeste 25 Sudoeste 0 -- -- 60
2020-06-28 16:00:00 29.9 14 Oeste 27 Sudoeste 0 -- -- 58
2020-06-28 15:00:00 29.9 9 Sur 29 Sudeste 0 -- -- 57
2020-06-28 14:00:00 30.2 10 Sudeste 23 Sudeste 0 -- -- 57
2020-06-28 13:00:00 30.5 9 Sudeste 25 Sur 0 -- -- 56
2020-06-28 12:00:00 30.5 12 Sur 19 Sur 0 -- -- 56
2020-06-28 11:00:00 29.6 5 Nordeste 14 Este 0 -- -- 55
2020-06-28 10:00:00 28.1 4 Noroeste 9 Norte 0 -- -- 60
2020-06-28 09:00:00 25.7 3 Noroeste 6 Noroeste 0 -- -- 73
2020-06-28 08:00:00 22.4 2 Este 5 Este 0 -- -- 94
2020-06-28 07:00:00 17.8 4 Este 5 Este 0 -- -- 95
2020-06-28 06:00:00 17.7 3 Este 5 Este 0 -- -- 93
2020-06-28 05:00:00 17.9 3 Este 4 Este 0 -- -- 91
2020-06-28 04:00:00 18.5 2 Este 5 Este 0 -- -- 91
2020-06-28 03:00:00 18.9 0 Calma 4 Este 0 -- -- 91
2020-06-28 02:00:00 19.1 0 Calma 2 Este 0 -- -- 88
2020-06-28 01:00:00 20.2 0 Calma 4 Este 0 -- -- 86
2020-06-28 00:00:00 21.5 2 Nordeste 6 Este 0 -- -- 83
2020-06-27 23:00:00 22.9 5 Este 10 Este 0 -- -- 82
2020-06-27 22:00:00 24.1 4 Este 10 Este 0 -- -- 72
2020-06-27 21:00:00 25.7 5 Sudoeste 13 Sudoeste 0 -- -- 66
2020-06-27 20:00:00 27.7 8 Sudoeste 15 Sudoeste 0 -- -- 60
2020-06-27 19:00:00 28.5 9 Sur 20 Sudoeste 0 -- -- 58
2020-06-27 18:00:00 29 12 Sudoeste 23 Sudoeste 0 -- -- 59
2020-06-27 17:00:00 29.2 13 Sudoeste 26 Sudoeste 0 -- -- 59
2020-06-27 16:00:00 29.7 11 Sudoeste 25 Sudoeste 0 -- -- 58
2020-06-27 15:00:00 28.8 10 Sudoeste 23 Sur 0 -- -- 62
2020-06-27 14:00:00 28.7 10 Sur 23 Sur 0 -- -- 64
2020-06-27 13:00:00 28.5 8 Sur 20 Sur 0 -- -- 64
2020-06-27 12:00:00 28.1 2 Norte 9 Sudeste 0 -- -- 63
2020-06-27 11:00:00 26.8 5 Sudeste 11 Este 0 -- -- 69
2020-06-27 10:00:00 25.4 3 Este 8 Sudeste 0 -- -- 76
2020-06-27 09:00:00 24 4 Sudeste 9 Sudeste 0 -- -- 82
2020-06-27 08:00:00 23.4 0 Calma 4 Nordeste 0 -- -- 85
2020-06-27 07:00:00 22.7 0 Calma 8 Este 0 -- -- 87
2020-06-27 06:00:00 23 4 Este 6 Nordeste 0 -- -- 86
2020-06-27 05:00:00 23.1 3 Nordeste 7 Nordeste 0 -- -- 86
2020-06-27 04:00:00 23.3 3 Este 9 Sudeste 0 -- -- 84
2020-06-27 03:00:00 23.4 7 Sudeste 17 Este 0 -- -- 82
2020-06-27 02:00:00 23.5 8 Sudeste 20 Este 0 -- -- 80
2020-06-27 01:00:00 23.4 10 Sudeste 18 Sudeste 0 -- -- 79
2020-06-27 00:00:00 23.3 8 Sudeste 17 Sudeste 0 -- -- 82
2020-06-26 23:00:00 23.2 12 Sudeste 18 Este 0 -- -- 83
2020-06-26 22:00:00 23.5 9 Este 21 Este 0 -- -- 83
2020-06-26 21:00:00 24.5 11 Este 22 Este 0 -- -- 71
2020-06-26 20:00:00 26.6 13 Este 25 Este 0 -- -- 61
2020-06-26 19:00:00 28.2 15 Este 30 Sudeste 0 -- -- 53
2020-06-26 18:00:00 29.5 14 Este 28 Sudeste 0 -- -- 49
2020-06-26 17:00:00 30.4 14 Este 27 Este 0 -- -- 45
2020-06-26 16:00:00 30 16 Este 28 Sudeste 0 -- -- 46
2020-06-26 15:00:00 30.5 13 Este 28 Sudeste 0 -- -- 45
2020-06-26 14:00:00 30.7 14 Sudeste 32 Este 0 -- -- 42
2020-06-26 13:00:00 31 14 Este 27 Sudeste 0 -- -- 43
2020-06-26 12:00:00 30.7 13 Este 28 Este 0 -- -- 43
2020-06-26 11:00:00 30.5 15 Este 26 Este 0 -- -- 39
2020-06-26 10:00:00 29.4 9 Este 17 Este 0 -- -- 40
2020-06-26 09:00:00 25.6 4 Norte 12 Nordeste 0 -- -- 53
2020-06-26 08:00:00 21.4 3 Nordeste 8 Norte 0 -- -- 62
2020-06-26 07:00:00 18.3 0 Calma 9 Norte 0 -- -- 74
2020-06-26 06:00:00 18.5 4 Nordeste 10 Nordeste 0 -- -- 72
2020-06-26 05:00:00 18.4 4 Nordeste 12 Nordeste 0 -- -- 71
2020-06-26 04:00:00 18.1 3 Norte 11 Nordeste 0 -- -- 71
2020-06-26 03:00:00 18.8 5 Nordeste 13 Nordeste 0 -- -- 70
2020-06-26 02:00:00 16.9 2 Nordeste 6 Nordeste 0 -- -- 81
2020-06-26 01:00:00 18.1 0 Calma 4 Norte 0 -- -- 77
2020-06-26 00:00:00 20.4 3 Norte 9 Norte 0 -- -- 70
2020-06-25 23:00:00 22.7 4 Nordeste 14 Nordeste 0 -- -- 64
2020-06-25 22:00:00 23.9 5 Nordeste 12 Nordeste 0 -- -- 60
2020-06-25 21:00:00 25.9 7 Nordeste 25 Este 0 -- -- 49
2020-06-25 20:00:00 27.8 12 Este 26 Este 0 -- -- 46
2020-06-25 19:00:00 29 16 Este 32 Este 0 -- -- 43
2020-06-25 18:00:00 30.2 17 Este 30 Este 0 -- -- 39
2020-06-25 17:00:00 30.9 20 Este 39 Este 0 -- -- 37
2020-06-25 16:00:00 31.9 19 Sudeste 35 Este 0 -- -- 35
2020-06-25 15:00:00 32.1 20 Este 33 Este 0 -- -- 34
2020-06-25 14:00:00 31.9 18 Este 35 Este 0 -- -- 34
2020-06-25 13:00:00 31.2 19 Este 32 Este 0 -- -- 36
2020-06-25 12:00:00 30.9 14 Este 27 Este 0 -- -- 39
2020-06-25 11:00:00 30.3 15 Este 24 Sudeste 0 -- -- 40
2020-06-25 10:00:00 29.3 12 Este 20 Este 0 -- -- 39
2020-06-25 09:00:00 25.5 8 Nordeste 18 Nordeste 0 -- -- 59
2020-06-25 08:00:00 21.8 6 Nordeste 14 Norte 0 -- -- 70
2020-06-25 07:00:00 17.4 0 Calma 9 Este 0 -- -- 87
2020-06-25 06:00:00 17.7 3 Nordeste 10 Norte 0 -- -- 81
2020-06-25 05:00:00 18.9 6 Nordeste 16 Este 0 -- -- 73
2020-06-25 04:00:00 17.8 7 Nordeste 11 Nordeste 0 -- -- 81
2020-06-25 03:00:00 16.4 3 Nordeste 6 Este 0 -- -- 84
2020-06-25 02:00:00 16.8 4 Este 5 Nordeste 0 -- -- 81
2020-06-25 01:00:00 17.9 0 Calma 7 Norte 0 -- -- 75
2020-06-25 00:00:00 19.8 4 Noroeste 8 Este 0 -- -- 64
2020-06-24 23:00:00 21.2 5 Este 13 Este 0 -- -- 61
2020-06-24 22:00:00 23.8 3 Este 18 Este 0 -- -- 56
2020-06-24 21:00:00 25.9 6 Nordeste 21 Este 0 -- -- 47
2020-06-24 20:00:00 28.6 12 Este 25 Este 0 -- -- 38
2020-06-24 19:00:00 30.2 15 Este 26 Este 0 -- -- 33
2020-06-24 18:00:00 31 15 Este 28 Sudeste 0 -- -- 34
2020-06-24 17:00:00 31.8 13 Sudeste 30 Sudeste 0 -- -- 33
2020-06-24 16:00:00 32.6 12 Sudeste 25 Sudeste 0 -- -- 32
2020-06-24 15:00:00 32.5 11 Sudeste 23 Este 0 -- -- 28
2020-06-24 14:00:00 31.9 11 Este 23 Este 0 -- -- 28
2020-06-24 13:00:00 31.3 11 Este 23 Este 0 -- -- 33
2020-06-24 12:00:00 30.5 12 Este 19 Nordeste 0 -- -- 37
2020-06-24 11:00:00 29.1 7 Nordeste 20 Este 0 -- -- 44
2020-06-24 10:00:00 27.3 11 Nordeste 21 Este 0 -- -- 49
2020-06-24 09:00:00 24.8 5 Este 10 Este 0 -- -- 64
2020-06-24 08:00:00 21.2 3 Nordeste 12 Nordeste 0 -- -- 84
2020-06-24 07:00:00 17.8 7 Este 12 Este 0 -- -- 96
2020-06-24 06:00:00 16.4 4 Nordeste 10 Nordeste 0 -- -- 97
2020-06-24 05:00:00 15.9 0 Calma 4 Nordeste 0 -- -- 95
2020-06-24 04:00:00 16.6 0 Calma 8 Nordeste 0 -- -- 95
2020-06-24 03:00:00 16.2 0 Calma 4 Nordeste 0 -- -- 92
2020-06-24 02:00:00 16.8 3 Nordeste 5 Nordeste 0 -- -- 90
2020-06-24 01:00:00 18.1 0 Calma 5 Este 0 -- -- 89
2020-06-24 00:00:00 19.3 0 Calma 5 Nordeste 0 -- -- 86
2020-06-23 23:00:00 20.9 0 Calma 8 Este 0 -- -- 82
2020-06-23 22:00:00 23.1 6 Este 14 Sudeste 0 -- -- 78
2020-06-23 21:00:00 25.5 6 Este 15 Este 0 -- -- 66
2020-06-23 20:00:00 28.1 10 Este 18 Este 0 -- -- 51
2020-06-23 19:00:00 28.4 10 Este 22 Este 0 -- -- 48
2020-06-23 18:00:00 29.2 12 Sudeste 24 Sudeste 0 -- -- 46
2020-06-23 17:00:00 29.9 12 Sudeste 23 Sudeste 0 -- -- 45
2020-06-23 16:00:00 29.9 8 Sur 23 Sudeste 0 -- -- 43
2020-06-23 15:00:00 29.9 13 Sudeste 24 Sudeste 0 -- -- 42
2020-06-23 14:00:00 30.2 10 Este 29 Sur 0 -- -- 41
2020-06-23 13:00:00 30.4 9 Sudeste 25 Sudeste 0 -- -- 42
2020-06-23 12:00:00 29.7 6 Sur 21 Sudoeste 0 -- -- 45
2020-06-23 11:00:00 28.9 8 Sudeste 19 Sudeste 0 -- -- 48
2020-06-23 10:00:00 26.6 5 Nordeste 11 Norte 0 -- -- 57
2020-06-23 09:00:00 24.3 0 Calma 5 Noroeste 0 -- -- 64
2020-06-23 08:00:00 20.1 0 Calma 4 Este 0 -- -- 91
2020-06-23 07:00:00 14.5 4 Nordeste 5 Este 0 -- -- 94
2020-06-23 06:00:00 14.6 4 Este 5 Este 0 -- -- 93
2020-06-23 05:00:00 15.2 5 Este 6 Este 0 -- -- 93
2020-06-23 04:00:00 15.5 0 Calma 7 Este 0 -- -- 90
2020-06-23 03:00:00 15.9 4 Este 6 Este 0 -- -- 91
2020-06-23 02:00:00 16.2 3 Este 5 Este 0 -- -- 88
2020-06-23 01:00:00 17.4 4 Este 6 Este 0 -- -- 87
2020-06-23 00:00:00 18.7 4 Este -- -- 0 -- -- 86
2020-06-22 23:00:00 20.2 3 Este 5 Este 0 -- -- 81
2020-06-22 22:00:00 22.4 2 Sur 12 Oeste 0 -- -- 76
2020-06-22 21:00:00 24.1 8 Oeste 18 Sudoeste 0 -- -- 72
2020-06-22 20:00:00 25.7 13 Oeste 23 Sudoeste 0 -- -- 67
2020-06-22 19:00:00 26.7 15 Sudoeste 26 Oeste 0 -- -- 62
2020-06-22 18:00:00 27.5 14 Sudoeste 25 Sudoeste 0 -- -- 60
2020-06-22 17:00:00 28 16 Sudoeste 28 Sudoeste 0 -- -- 61
2020-06-22 16:00:00 27.3 14 Sudoeste 31 Sudoeste 0 -- -- 61
2020-06-22 15:00:00 27.3 18 Sudoeste 36 Sudoeste 0 -- -- 58
2020-06-22 14:00:00 30.2 9 Noroeste 28 Norte 0 -- -- 45
2020-06-22 13:00:00 30.8 10 Nordeste 25 Nordeste 0 -- -- 42
2020-06-22 12:00:00 30.5 12 Nordeste 27 Nordeste 0 -- -- 42
2020-06-22 11:00:00 29.3 12 Este 28 Nordeste 0 -- -- 44
2020-06-22 10:00:00 28.1 10 Nordeste 24 Este 0 -- -- 48
2020-06-22 09:00:00 25.2 4 Norte 8 Nordeste 0 -- -- 64
2020-06-22 08:00:00 21 2 Nordeste 5 Nordeste 0 -- -- 87
2020-06-22 07:00:00 16.7 5 Este 7 Este 0 -- -- 96
2020-06-22 06:00:00 15.4 5 Este 6 Este 0 -- -- 94
2020-06-22 05:00:00 15.7 2 Este 5 Este 0 -- -- 93
2020-06-22 04:00:00 16.2 5 Este 5 Este 0 -- -- 93
2020-06-22 03:00:00 16.3 4 Este 6 Este 0 -- -- 92
2020-06-22 02:00:00 16.3 3 Este 4 Este 0 -- -- 89
2020-06-22 01:00:00 16.9 2 Este 4 Este 0 -- -- 87
2020-06-22 00:00:00 17.8 3 Este 5 Nordeste 0 -- -- 83
2020-06-21 23:00:00 19.2 2 Sudeste 4 Este 0 -- -- 78
2020-06-21 22:00:00 21.9 3 Sudoeste 13 Sudoeste 0 -- -- 70
2020-06-21 21:00:00 24 8 Sudoeste 21 Oeste 0 -- -- 59
2020-06-21 20:00:00 26.3 11 Sudoeste 22 Sudoeste 0 -- -- 49
2020-06-21 19:00:00 27.7 12 Sudoeste 22 Sudoeste 0 -- -- 44
2020-06-21 18:00:00 28.3 10 Sudoeste 27 Oeste 0 -- -- 45
2020-06-21 17:00:00 29 14 Sudoeste 26 Sudoeste 0 -- -- 45
2020-06-21 16:00:00 29.8 12 Sudoeste 26 Sudoeste 0 -- -- 42
2020-06-21 15:00:00 29.8 11 Sur 26 Sur 0 -- -- 41
2020-06-21 14:00:00 29.9 12 Sudeste 26 Sudeste 0 -- -- 41
2020-06-21 13:00:00 30.2 13 Sudeste 24 Sudeste 0 -- -- 42
2020-06-21 12:00:00 29.5 7 Sudeste 17 Sudeste 0 -- -- 48
2020-06-21 11:00:00 28 5 Oeste 12 Noroeste 0 -- -- 51
2020-06-21 10:00:00 26.4 3 Norte 8 Nordeste 0 -- -- 51
2020-06-21 09:00:00 23.2 3 Nordeste 6 Nordeste 0 -- -- 81
2020-06-21 08:00:00 19.3 0 Calma 4 Este 0 -- -- 96
2020-06-21 07:00:00 14.8 4 Este 6 Este 0 -- -- 97
2020-06-21 06:00:00 14.5 3 Este 5 Este 0 -- -- 96
2020-06-21 05:00:00 14.9 3 Este 6 Nordeste 0 -- -- 95
2020-06-21 04:00:00 15.4 2 Este 4 Norte 0 -- -- 94
2020-06-21 03:00:00 16.2 0 Calma 8 Este 0 -- -- 94
2020-06-21 02:00:00 16.7 5 Este 6 Este 0 -- -- 94
2020-06-21 01:00:00 16.7 3 Este 5 Este 0 -- -- 92
2020-06-21 00:00:00 17.3 3 Este -- -- 0 -- -- 88
2020-06-20 23:00:00 19 0 Calma 5 Sudoeste 0 -- -- 86
2020-06-20 22:00:00 21 3 Sudoeste 14 Sudoeste 0 -- -- 85
2020-06-20 21:00:00 22.5 8 Sudoeste 19 Sudoeste 0 -- -- 77
2020-06-20 20:00:00 24.4 10 Sudoeste 23 Sudoeste 0 -- -- 68
2020-06-20 19:00:00 25.2 14 Sudoeste 24 Oeste 0 -- -- 64
2020-06-20 18:00:00 25.9 15 Sudoeste 29 Sudoeste 0 -- -- 63
2020-06-20 17:00:00 26.2 16 Sudoeste 32 Sudoeste 0 -- -- 64
2020-06-20 16:00:00 26.9 15 Sudoeste 32 Sudoeste 0 -- -- 58
2020-06-20 15:00:00 27.5 15 Sudoeste 30 Sur 0 -- -- 46
2020-06-20 14:00:00 27.4 14 Sudoeste 28 Oeste 0 -- -- 56
2020-06-20 13:00:00 27 17 Sudoeste 29 Sudoeste 0 -- -- 64
2020-06-20 12:00:00 27.2 12 Sudoeste 23 Sudoeste 0 -- -- 62
2020-06-20 11:00:00 26.9 9 Sudoeste 17 Sudoeste 0 -- -- 62
2020-06-20 10:00:00 25.4 2 Nordeste 8 Norte 0 -- -- 65
2020-06-20 09:00:00 23.1 2 Norte 4 Norte 0 -- -- 76
2020-06-20 08:00:00 20.1 0 Calma 5 Este 0 -- -- 97
2020-06-20 07:00:00 15.7 4 Este 5 Sudeste 0 -- -- 97
2020-06-20 06:00:00 15.3 5 Este 6 Este 0 -- -- 97
2020-06-20 05:00:00 15.1 4 Este 6 Este 0 -- -- 95
2020-06-20 04:00:00 15 3 Este 4 Este 0 -- -- 94
2020-06-20 03:00:00 15.5 3 Este 5 Este 0 -- -- 94
2020-06-20 02:00:00 15.8 4 Este 4 Este 0 -- -- 92
2020-06-20 01:00:00 16.4 3 Este 6 Este 0 -- -- 91
2020-06-20 00:00:00 16.9 0 Calma 2 Este 0 -- -- 86
2020-06-19 23:00:00 18.3 0 Calma 5 Sur 0 -- -- 84
2020-06-19 22:00:00 20.2 4 Sur 9 Sur 0 -- -- 79
2020-06-19 21:00:00 22.1 6 Sudoeste 14 Sur 0 -- -- 69
2020-06-19 20:00:00 24.1 7 Sur 23 Sur 0 -- -- 59
2020-06-19 19:00:00 24.9 12 Sudeste 23 Sur 0 -- -- 55
2020-06-19 18:00:00 24.7 7 Sudeste 23 Este 0 -- -- 52
2020-06-19 17:00:00 26.3 15 Este 33 Este 0 -- -- 48
2020-06-19 16:00:00 26.4 19 Este 30 Este 0 -- -- 56
2020-06-19 15:00:00 26.7 16 Este 30 Este 0 -- -- 54
2020-06-19 14:00:00 26.3 11 Nordeste 23 Este 0 -- -- 57
2020-06-19 13:00:00 26 7 Nordeste 19 Nordeste 0 -- -- 60
2020-06-19 12:00:00 23.1 6 Nordeste 14 Nordeste 0 -- -- 81
2020-06-19 11:00:00 20.1 6 Nordeste 13 Nordeste 0.8 -- -- 88
2020-06-19 10:00:00 21.3 5 Norte 15 Nordeste 0 -- -- 84
2020-06-19 09:00:00 21.6 8 Nordeste 16 Este 0 -- -- 84
2020-06-19 08:00:00 19.8 4 Norte 12 Noroeste 0 -- -- 93
2020-06-19 07:00:00 18.7 6 Norte 12 Norte 0 -- -- 95
2020-06-19 06:00:00 18.1 2 Nordeste 5 Este 0 -- -- 93
2020-06-19 05:00:00 18.4 3 Norte 10 Norte 0 -- -- 93
2020-06-19 04:00:00 18.8 3 Norte 6 Norte 0 -- -- 92
2020-06-19 03:00:00 19.5 8 Este 20 Este 0 -- -- 92
2020-06-19 02:00:00 19.5 6 Norte 12 Norte 0 -- -- 91
2020-06-19 01:00:00 19.7 4 Nordeste 8 Nordeste 0 -- -- 90
2020-06-19 00:00:00 19.8 5 Este 8 Este 0 -- -- 88
2020-06-18 23:00:00 20.7 3 Nordeste 14 Este 0 -- -- 84
2020-06-18 22:00:00 21.4 10 Este 22 Este 0 -- -- 82
2020-06-18 21:00:00 22.1 10 Este 22 Este 0 -- -- 80
2020-06-18 20:00:00 22.9 16 Este 29 Este 0 -- -- 76
2020-06-18 19:00:00 23.7 15 Este 30 Este 0 -- -- 73
2020-06-18 18:00:00 25 17 Este 31 Este 0 -- -- 67
2020-06-18 17:00:00 25.9 15 Este 30 Este 0 -- -- 65
2020-06-18 16:00:00 27.3 15 Este 24 Este 0 -- -- 60
2020-06-18 15:00:00 26.6 7 Nordeste 20 Sudeste 0 -- -- 61
2020-06-18 14:00:00 27.3 10 Sudeste 22 Sur 0 -- -- 60
2020-06-18 13:00:00 25.3 13 Sudoeste 22 Sur 0 -- -- 66
2020-06-18 12:00:00 26.1 9 Sur 20 Sur 0 -- -- 62
2020-06-18 11:00:00 24.8 7 Sur 21 Sur 0 -- -- 67
2020-06-18 10:00:00 24.3 8 Sudeste 19 Sudeste 0 -- -- 68
2020-06-18 09:00:00 23.1 8 Sudeste 15 Este 0 -- -- 78
2020-06-18 08:00:00 19.4 5 Este 8 Este 0 -- -- 96
2020-06-18 07:00:00 15.9 4 Este 6 Este 0 -- -- 96
2020-06-18 06:00:00 15.9 0 Calma 4 Este 0 -- -- 94
2020-06-18 05:00:00 16.5 2 Este 5 Este 0 -- -- 93
2020-06-18 04:00:00 17.5 2 Nordeste 3 Este 0 -- -- 91
2020-06-18 03:00:00 18.7 2 Este 3 Nordeste 0 -- -- 90
2020-06-18 02:00:00 19.7 0 Calma 8 Sudeste 0 -- -- 91
2020-06-18 01:00:00 19.2 2 Sudeste 5 Sudeste 0 -- -- 92
2020-06-18 00:00:00 19.5 0 Calma 4 Norte 0 -- -- 89
2020-06-17 23:00:00 20.3 0 Calma 8 Sudeste 0 -- -- 88
2020-06-17 22:00:00 21 3 Sudeste 12 Sudeste 0 -- -- 85
2020-06-17 21:00:00 22 6 Sudeste 21 Este 0 -- -- 81
2020-06-17 20:00:00 23.8 9 Sudeste 19 Este 0 -- -- 73
2020-06-17 19:00:00 23.7 8 Sudeste 21 Sudeste 0 -- -- 71
2020-06-17 18:00:00 24.5 11 Sudeste 22 Sudeste 0 -- -- 70
2020-06-17 17:00:00 25.2 12 Sudeste 29 Sudeste 0 -- -- 65
2020-06-17 16:00:00 25.2 17 Sudeste 30 Sudeste 0 -- -- 66
2020-06-17 15:00:00 26 15 Sudeste 30 Este 0 -- -- 62
2020-06-17 14:00:00 26.4 16 Sudeste 30 Este 0 -- -- 63
2020-06-17 13:00:00 26.7 13 Sudeste 30 Este 0 -- -- 60
2020-06-17 12:00:00 25.5 12 Sudeste 27 Este 0 -- -- 58
2020-06-17 11:00:00 25.2 12 Sudeste 21 Este 0 -- -- 58
2020-06-17 10:00:00 24 11 Este 19 Este 0 -- -- 66
2020-06-17 09:00:00 22.3 10 Este 19 Este 0 -- -- 74
2020-06-17 08:00:00 18.4 4 Nordeste 8 Nordeste 0 -- -- 95
2020-06-17 07:00:00 15.3 3 Nordeste 6 Nordeste 0 -- -- 96
2020-06-17 06:00:00 15.5 0 Calma 3 Norte 0 -- -- 94
2020-06-17 05:00:00 16.9 0 Calma 10 Nordeste 0 -- -- 94
2020-06-17 04:00:00 17.8 5 Nordeste 11 Nordeste 0 -- -- 94
2020-06-17 03:00:00 17.5 4 Nordeste 7 Nordeste 0 -- -- 94
2020-06-17 02:00:00 17.7 3 Nordeste 8 Norte 0 -- -- 93
2020-06-17 01:00:00 17.3 2 Nordeste 4 Nordeste 0 -- -- 91
2020-06-17 00:00:00 18.4 2 Sur 5 Sudoeste 0 -- -- 88
2020-06-16 23:00:00 20 3 Oeste 14 Oeste 0 -- -- 86
2020-06-16 22:00:00 20.7 5 Sudoeste 10 Sudoeste 0 -- -- 84
2020-06-16 21:00:00 22.1 5 Sudoeste 18 Sudoeste 0 -- -- 77
2020-06-16 20:00:00 23.7 12 Sudoeste 21 Sudoeste 0 -- -- 70
2020-06-16 19:00:00 24.8 10 Sudoeste 29 Sudoeste 0 -- -- 64
2020-06-16 18:00:00 25.9 14 Sudoeste 27 Sudoeste 0 -- -- 59
2020-06-16 17:00:00 26.8 8 Sudoeste 21 Sudeste 0 -- -- 55
2020-06-16 16:00:00 26.6 9 Sudeste 23 Sudeste 0 -- -- 58
2020-06-16 15:00:00 26.2 12 Sudeste 32 Sudeste 0 -- -- 62
2020-06-16 14:00:00 26.1 15 Sudeste 26 Sudeste 0 -- -- 63
2020-06-16 13:00:00 25.1 12 Sudeste 25 Sudeste 0 -- -- 68
2020-06-16 12:00:00 25.7 10 Este 19 Este 0 -- -- 64
2020-06-16 11:00:00 24.3 8 Este 18 Este 0 -- -- 69
2020-06-16 10:00:00 23.1 4 Nordeste 10 Este 0 -- -- 80
2020-06-16 09:00:00 20.7 2 Nordeste 6 Norte 0 -- -- 96
2020-06-16 08:00:00 18.7 0 Calma 6 Nordeste 0 -- -- 99
2020-06-16 07:00:00 16.7 0 Calma 5 Nordeste 0 -- -- 97
2020-06-16 06:00:00 16.8 3 Nordeste 5 Sudoeste 0 -- -- 97
2020-06-16 05:00:00 17.3 4 Este 8 Este 0 -- -- 97
2020-06-16 04:00:00 16.6 3 Nordeste 5 Este 0 -- -- 96
2020-06-16 03:00:00 17.4 4 Este 6 Este 0 -- -- 97
2020-06-16 02:00:00 17.3 3 Este 4 Este 0 -- -- 95
2020-06-16 01:00:00 16.3 0 Calma 5 Este 0 -- -- 92
2020-06-16 00:00:00 17.1 3 Este 4 Sudeste 0 -- -- 91
2020-06-15 23:00:00 18.5 0 Calma 4 Sudoeste 0 -- -- 89
2020-06-15 22:00:00 20.4 3 Sudoeste 13 Sudoeste 0 -- -- 88
2020-06-15 21:00:00 21.8 8 Sudoeste 19 Sudoeste 0 -- -- 84
2020-06-15 20:00:00 23.7 12 Sudoeste 22 Sudoeste 0 -- -- 74
2020-06-15 19:00:00 24.7 13 Sudoeste 27 Sudoeste 0 -- -- 68
2020-06-15 18:00:00 25.1 17 Sudoeste 27 Sur 0 -- -- 64
2020-06-15 17:00:00 25.8 14 Sudoeste 26 Sudoeste 0 -- -- 61
2020-06-15 16:00:00 26.3 11 Sudoeste 23 Sudoeste 0 -- -- 58
2020-06-15 15:00:00 26.1 12 Sudoeste 27 Sudoeste 0 -- -- 56
2020-06-15 14:00:00 25.7 13 Sudoeste 26 Sudoeste 0 -- -- 61
2020-06-15 13:00:00 25.3 11 Sudoeste 30 Sudoeste 0 -- -- 63
2020-06-15 12:00:00 25.4 12 Sudoeste 23 Oeste 0 -- -- 63
2020-06-15 11:00:00 23.6 11 Sudoeste 21 Oeste 0 -- -- 70
2020-06-15 10:00:00 23.5 6 Sudoeste 13 Sur 0 -- -- 72
2020-06-15 09:00:00 22.1 3 Este 6 Sudeste 0 -- -- 80
2020-06-15 08:00:00 19.1 3 Este 6 Este 0 -- -- 96
2020-06-15 07:00:00 16.2 4 Este 6 Este 0 -- -- 99
2020-06-15 06:00:00 14.3 4 Este 5 Este 0 -- -- 97
2020-06-15 05:00:00 13.9 4 Este 6 Este 0 -- -- 96
2020-06-15 04:00:00 13.8 4 Este 4 Este 0 -- -- 95
2020-06-15 03:00:00 13.9 2 Sudeste 5 Sudoeste 0 -- -- 94
2020-06-15 02:00:00 14 3 Sur 4 Sur 0 -- -- 92
2020-06-15 01:00:00 14.8 2 Sudeste 4 Sur 0 -- -- 91
2020-06-15 00:00:00 15.7 3 Sudeste 4 Sudeste 0 -- -- 88
2020-06-14 23:00:00 17.5 2 Sudeste 8 Sudoeste 0 -- -- 85
2020-06-14 22:00:00 19.6 4 Sudoeste 11 Sudoeste 0 -- -- 82
2020-06-14 21:00:00 21.1 9 Sudoeste 20 Sudoeste 0 -- -- 75
2020-06-14 20:00:00 23 13 Sudoeste 22 Sudoeste 0 -- -- 67
2020-06-14 19:00:00 24.1 11 Sudoeste 27 Sudoeste 0 -- -- 59
2020-06-14 18:00:00 25.2 11 Sudoeste 26 Sudoeste 0 -- -- 51
2020-06-14 17:00:00 25.9 13 Sudoeste 24 Sudoeste 0 -- -- 44
2020-06-14 16:00:00 26 12 Sudoeste 21 Sudoeste 0 -- -- 47
2020-06-14 15:00:00 26 13 Sudoeste 28 Oeste 0 -- -- 46
2020-06-14 14:00:00 25.9 12 Sudoeste 31 Sudoeste 0 -- -- 51
2020-06-14 13:00:00 26 15 Sudoeste 26 Sudoeste 0 -- -- 50
2020-06-14 12:00:00 25.5 12 Sudoeste 23 Sudoeste 0 -- -- 52
2020-06-14 11:00:00 25 8 Oeste 15 Sudoeste 0 -- -- 60
2020-06-14 10:00:00 23.9 6 Oeste 14 Sudoeste 0 -- -- 65
2020-06-14 09:00:00 21.7 5 Noroeste 10 Oeste 0 -- -- 77
2020-06-14 08:00:00 17.6 2 Este 6 Norte 0 -- -- 95
2020-06-14 07:00:00 14.8 0 Calma 12 Norte 0 -- -- 97
2020-06-14 06:00:00 14.1 4 Este 9 Sudeste 0 -- -- 96
2020-06-14 05:00:00 13.9 5 Este 7 Este 0 -- -- 95
2020-06-14 04:00:00 13.7 3 Este 7 Este 0 -- -- 94
2020-06-14 03:00:00 14.2 3 Sudeste 9 Sur 0 -- -- 94
2020-06-14 02:00:00 13.9 4 Sudeste 6 Este 0 -- -- 92
2020-06-14 01:00:00 14.4 5 Este 6 Este 0 -- -- 89
2020-06-14 00:00:00 15.2 3 Sudoeste 5 Sur 0 -- -- 83
2020-06-13 23:00:00 16.9 3 Sudoeste 9 Sudoeste 0 -- -- 76
2020-06-13 22:00:00 19.3 6 Sudoeste 22 Oeste 0 -- -- 67
2020-06-13 21:00:00 21.1 12 Oeste 26 Sudoeste 0 -- -- 61
2020-06-13 20:00:00 23.5 15 Sudoeste 26 Sudoeste 0 -- -- 52
2020-06-13 19:00:00 25 18 Sudoeste 33 Sudoeste 0 -- -- 43
2020-06-13 18:00:00 25.9 20 Sudoeste 35 Sudoeste 0 -- -- 43
2020-06-13 17:00:00 26.3 21 Sudoeste 33 Sudoeste 0 -- -- 42
2020-06-13 16:00:00 26.3 21 Sudoeste 35 Sudoeste 0 -- -- 44
2020-06-13 15:00:00 26.8 20 Sudoeste 37 Sudoeste 0 -- -- 45
2020-06-13 14:00:00 26.5 20 Oeste 36 Oeste 0 -- -- 44
2020-06-13 13:00:00 25.9 21 Sudoeste 39 Sudoeste 0 -- -- 55
2020-06-13 12:00:00 26.7 18 Oeste 31 Sudoeste 0 -- -- 43
2020-06-13 11:00:00 25.9 14 Oeste 31 Oeste 0 -- -- 43
2020-06-13 10:00:00 24.4 14 Oeste 28 Oeste 0 -- -- 47
2020-06-13 09:00:00 22.5 12 Sudoeste 23 Sudoeste 0 -- -- 79
2020-06-13 08:00:00 20 6 Oeste 12 Oeste 0 -- -- 95
2020-06-13 07:00:00 17.5 3 Sudoeste 8 Sur 0 -- -- 97
2020-06-13 06:00:00 17.6 5 Sur 9 Sudeste 0 -- -- 97
2020-06-13 05:00:00 16.5 0 Calma 6 Noroeste 0 -- -- 96
2020-06-13 04:00:00 16.3 2 Sur 5 Sudeste 0 -- -- 94
2020-06-13 03:00:00 17.4 3 Sur 8 Sur 0 -- -- 94
2020-06-13 02:00:00 17.9 4 Sudeste 13 Sudeste 0 -- -- 94
2020-06-13 01:00:00 17.4 6 Sudeste 10 Sudeste 0 -- -- 94
2020-06-13 00:00:00 17.5 5 Sur 7 Sur 0 -- -- 91
2020-06-12 23:00:00 18.6 5 Sur 9 Sur 0 -- -- 89
2020-06-12 22:00:00 19.6 6 Sudoeste 18 Sudoeste 0 -- -- 85
2020-06-12 21:00:00 20.8 9 Sudoeste 26 Sudoeste 0 -- -- 81
2020-06-12 20:00:00 21.9 14 Sudoeste 28 Sudoeste 0 -- -- 75
2020-06-12 19:00:00 22.5 15 Sudoeste 31 Sudoeste 0 -- -- 74
2020-06-12 18:00:00 24.2 17 Sudoeste 31 Sudoeste 0 -- -- 69
2020-06-12 17:00:00 25.5 15 Sudoeste 31 Sudoeste 0 -- -- 56
2020-06-12 16:00:00 25.9 16 Sudoeste 31 Sudoeste 0 -- -- 52
2020-06-12 15:00:00 26.4 16 Sudoeste 31 Sudoeste 0 -- -- 47
2020-06-12 14:00:00 26.9 15 Oeste 34 Sudoeste 0 -- -- 47
2020-06-12 13:00:00 25.7 19 Sudoeste 38 Sudoeste 0 -- -- 59
2020-06-12 12:00:00 25 22 Sudoeste 40 Sudoeste 0 -- -- 67
2020-06-12 11:00:00 24.4 24 Sudoeste 42 Sudoeste 0 -- -- 74
2020-06-12 10:00:00 24 22 Sudoeste 37 Sudoeste 0 -- -- 78
2020-06-12 09:00:00 23.5 19 Sudoeste 32 Sudoeste 0 -- -- 75
2020-06-12 08:00:00 21.7 12 Sudoeste 25 Sudoeste 0 -- -- 89
2020-06-12 07:00:00 20.1 7 Sudoeste 22 Sudoeste 0 -- -- 90
2020-06-12 06:00:00 20.1 11 Sudoeste 27 Sudoeste 0 -- -- 87
2020-06-12 05:00:00 20.2 13 Sudoeste 24 Sur 0 -- -- 83
2020-06-12 04:00:00 20.1 10 Sudoeste 21 Sur 0 -- -- 83
2020-06-12 03:00:00 19.2 8 Sur 19 Sur 0 -- -- 85
2020-06-12 02:00:00 19.1 7 Sur 22 Sur 0 -- -- 84
2020-06-12 01:00:00 17.7 5 Sur 12 Sur 0 -- -- 88
2020-06-12 00:00:00 18.2 5 Sur 12 Sur 0 -- -- 86
2020-06-11 23:00:00 18.5 5 Sur 10 Sur 0 -- -- 89
2020-06-11 22:00:00 19.9 5 Sur 17 Sudoeste 0 -- -- 87
2020-06-11 21:00:00 21.1 10 Sudoeste 26 Sudoeste 0 -- -- 84
2020-06-11 20:00:00 22.2 12 Sudoeste 25 Sudoeste 0 -- -- 77
2020-06-11 19:00:00 22.8 14 Sudoeste 25 Sudoeste 0 -- -- 74
2020-06-11 18:00:00 22.9 14 Sudoeste 30 Sur 0 -- -- 72
2020-06-11 17:00:00 23.5 17 Sudoeste 31 Sudoeste 0 -- -- 69
2020-06-11 16:00:00 24.1 17 Sudoeste 33 Sudoeste 0 -- -- 68
2020-06-11 15:00:00 25 16 Sudoeste 37 Sudoeste 0 -- -- 63
2020-06-11 14:00:00 24.7 17 Sudoeste 35 Sudoeste 0 -- -- 68
2020-06-11 13:00:00 24.5 18 Sudoeste 32 Sudoeste 0 -- -- 68
2020-06-11 12:00:00 24.2 15 Sudoeste 31 Sur 0 -- -- 66
2020-06-11 11:00:00 23.3 15 Sudoeste 28 Sur 0 -- -- 71
2020-06-11 10:00:00 21.6 13 Sur 24 Sur 0 -- -- 79
2020-06-11 09:00:00 20 4 Sur 11 Sur 0 -- -- 92
2020-06-11 08:00:00 18.3 4 Sur 8 Sudeste 0 -- -- 97
2020-06-11 07:00:00 17.2 3 Este 4 Este 0 -- -- 97
2020-06-11 06:00:00 17.3 0 Calma 5 Este 0 -- -- 96
2020-06-11 05:00:00 17.8 4 Sur 7 Sudeste 0 -- -- 96
2020-06-11 04:00:00 17.7 4 Sur 9 Sudeste 0 -- -- 96
2020-06-11 03:00:00 17.4 2 Noroeste 5 Sur 0 -- -- 95
2020-06-11 02:00:00 17.5 4 Sur 6 Sur 0 -- -- 94
2020-06-11 01:00:00 17.7 0 Calma 3 Sudeste 0 -- -- 95
2020-06-11 00:00:00 17.1 0 Calma 4 Sudeste 0 -- -- 94
2020-06-10 23:00:00 16.9 3 Sudeste 5 Sur 0 -- -- 89
2020-06-10 22:00:00 18.6 3 Sur 10 Sudoeste 0 -- -- 84
2020-06-10 21:00:00 20.2 6 Sudoeste 20 Sudoeste 0 -- -- 79
2020-06-10 20:00:00 21.7 12 Sudoeste 24 Sudoeste 0 -- -- 69
2020-06-10 19:00:00 22.6 14 Sudoeste 28 Sudoeste 0 -- -- 68
2020-06-10 18:00:00 22.4 16 Sudoeste 32 Sudoeste 0 -- -- 67
2020-06-10 17:00:00 23.9 16 Sudoeste 34 Sudoeste 0 -- -- 60
2020-06-10 16:00:00 24.3 17 Sudoeste 32 Sudoeste 0 -- -- 60
2020-06-10 15:00:00 24.5 17 Sudoeste 28 Sudoeste 0 -- -- 55
2020-06-10 14:00:00 24.2 15 Sudoeste 28 Oeste 0 -- -- 56
2020-06-10 13:00:00 23.9 12 Sudoeste 22 Sudoeste 0.4 -- -- 48
2020-06-10 12:00:00 21.3 13 Sudoeste 21 Sudoeste 0 -- -- 67
2020-06-10 11:00:00 23 7 Sudoeste 13 Sudoeste 0 -- -- 52
2020-06-10 10:00:00 21.4 3 Norte 7 Noroeste 0 -- -- 55
2020-06-10 09:00:00 19.6 2 Oeste 5 Oeste 0 -- -- 69
2020-06-10 08:00:00 15 2 Norte 4 Norte 0 -- -- 97
2020-06-10 07:00:00 10.3 3 Este 5 Este 0 -- -- 98
2020-06-10 06:00:00 10.2 3 Este 4 Nordeste 0 -- -- 96
2020-06-10 05:00:00 10.9 4 Este 5 Este 0 -- -- 97
2020-06-10 04:00:00 10.9 0 Calma 5 Este 0 -- -- 95
2020-06-10 03:00:00 11.7 0 Calma 4 Este 0 -- -- 95
2020-06-10 02:00:00 12.3 3 Este 6 Este 0 -- -- 95
2020-06-10 01:00:00 12.9 4 Este 6 Este 0 -- -- 93
2020-06-10 00:00:00 13.5 4 Este 6 Este 0 -- -- 91
2020-06-09 23:00:00 14.7 3 Sudeste 4 Este 0 -- -- 86
2020-06-09 22:00:00 17.2 4 Sudoeste 10 Sudoeste 0 -- -- 75
2020-06-09 21:00:00 19.8 6 Oeste 21 Sudoeste 0 -- -- 64
2020-06-09 20:00:00 21.9 13 Sudoeste 25 Oeste 0 -- -- 56
2020-06-09 19:00:00 22.8 14 Oeste 32 Sudoeste 0 -- -- 50
2020-06-09 18:00:00 23.2 15 Sudoeste 31 Oeste 0 -- -- 54
2020-06-09 17:00:00 22.4 18 Sudoeste 37 Sudoeste 0 -- -- 55
2020-06-09 16:00:00 23.3 21 Sudoeste 40 Sudoeste 0 -- -- 54
2020-06-09 15:00:00 23.1 20 Sudoeste 38 Sudoeste 0 -- -- 63
2020-06-09 14:00:00 23.1 17 Sudoeste 27 Sudoeste 0 -- -- 57
2020-06-09 13:00:00 23.2 13 Sudoeste 24 Sudoeste 0 -- -- 55
2020-06-09 12:00:00 22.7 7 Sudeste 17 Este 0 -- -- 57
2020-06-09 11:00:00 22.1 6 Nordeste 15 Este 0 -- -- 61
2020-06-09 10:00:00 20.8 3 Oeste 6 Oeste 0 -- -- 66
2020-06-09 09:00:00 18 2 Norte 5 Noroeste 0 -- -- 88
2020-06-09 08:00:00 15.1 0 Calma 5 Este 0 -- -- 100
2020-06-09 07:00:00 11 0 Calma 4 Este 0 -- -- 99
2020-06-09 06:00:00 11.2 2 Este 5 Este 0 -- -- 98
2020-06-09 05:00:00 11.7 3 Este 6 Este 0 -- -- 97
2020-06-09 04:00:00 12 2 Este 5 Este 0 -- -- 97
2020-06-09 03:00:00 12.5 2 Este 5 Este 0 -- -- 96
2020-06-09 02:00:00 12.9 2 Este 5 Este 0 -- -- 95
2020-06-09 01:00:00 13.7 2 Este 4 Este 0 -- -- 94
2020-06-09 00:00:00 15.3 4 Este 5 Norte 0 -- -- 94